sensor_id;sensor_type;location;lat;lon;timestamp;temperature;humidity
47434;SHT31;33184;48.774;8.918;2023-05-10T00:03:22;12.98;90.58
47434;SHT31;33184;48.774;8.918;2023-05-10T00:08:43;12.87;90.69
47434;SHT31;33184;48.774;8.918;2023-05-10T00:14:04;12.73;90.30
47434;SHT31;33184;48.774;8.918;2023-05-10T00:19:27;12.65;90.47
47434;SHT31;33184;48.774;8.918;2023-05-10T00:24:47;12.56;90.58
47434;SHT31;33184;48.774;8.918;2023-05-10T00:30:08;12.51;90.77
47434;SHT31;33184;48.774;8.918;2023-05-10T00:35:29;12.44;91.07
47434;SHT31;33184;48.774;8.918;2023-05-10T00:40:50;12.39;91.07
47434;SHT31;33184;48.774;8.918;2023-05-10T00:46:18;12.33;91.15
47434;SHT31;33184;48.774;8.918;2023-05-10T00:51:39;12.32;91.31
47434;SHT31;33184;48.774;8.918;2023-05-10T00:56:59;12.33;91.25
47434;SHT31;33184;48.774;8.918;2023-05-10T01:02:20;12.40;91.36
47434;SHT31;33184;48.774;8.918;2023-05-10T01:07:41;12.43;91.22
47434;SHT31;33184;48.774;8.918;2023-05-10T01:13:01;12.37;91.09
47434;SHT31;33184;48.774;8.918;2023-05-10T01:18:23;12.40;91.17
47434;SHT31;33184;48.774;8.918;2023-05-10T01:35:55;12.39;90.75
47434;SHT31;33184;48.774;8.918;2023-05-10T01:47:11;12.29;91.11
47434;SHT31;33184;48.774;8.918;2023-05-10T01:52:36;12.39;91.10
47434;SHT31;33184;48.774;8.918;2023-05-10T01:58:08;12.39;90.71
47434;SHT31;33184;48.774;8.918;2023-05-10T02:03:31;12.44;90.42
47434;SHT31;33184;48.774;8.918;2023-05-10T02:08:53;12.39;90.08
47434;SHT31;33184;48.774;8.918;2023-05-10T02:14:15;12.42;90.04
47434;SHT31;33184;48.774;8.918;2023-05-10T02:19:39;12.36;89.92
47434;SHT31;33184;48.774;8.918;2023-05-10T02:25:01;12.23;89.87
47434;SHT31;33184;48.774;8.918;2023-05-10T02:30:23;12.20;90.01
47434;SHT31;33184;48.774;8.918;2023-05-10T02:35:45;12.18;90.04
47434;SHT31;33184;48.774;8.918;2023-05-10T02:41:08;12.19;90.18
47434;SHT31;33184;48.774;8.918;2023-05-10T02:46:29;12.13;90.21
47434;SHT31;33184;48.774;8.918;2023-05-10T02:51:56;12.15;90.16
47434;SHT31;33184;48.774;8.918;2023-05-10T02:57:26;12.15;90.06
47434;SHT31;33184;48.774;8.918;2023-05-10T03:02:47;12.19;90.23
47434;SHT31;33184;48.774;8.918;2023-05-10T03:08:08;12.22;90.13
47434;SHT31;33184;48.774;8.918;2023-05-10T03:13:32;12.23;90.10
47434;SHT31;33184;48.774;8.918;2023-05-10T03:19:53;12.19;90.31
47434;SHT31;33184;48.774;8.918;2023-05-10T03:24:49;12.19;90.38
47434;SHT31;33184;48.774;8.918;2023-05-10T03:30:11;12.16;90.50
47434;SHT31;33184;48.774;8.918;2023-05-10T03:35:32;12.19;90.58
47434;SHT31;33184;48.774;8.918;2023-05-10T03:40:53;12.18;90.77
47434;SHT31;33184;48.774;8.918;2023-05-10T03:46:14;12.09;90.85
47434;SHT31;33184;48.774;8.918;2023-05-10T03:51:34;12.15;91.13
47434;SHT31;33184;48.774;8.918;2023-05-10T03:56:55;12.12;91.04
47434;SHT31;33184;48.774;8.918;2023-05-10T04:02:16;12.00;91.02
47434;SHT31;33184;48.774;8.918;2023-05-10T04:07:37;12.03;91.25
47434;SHT31;33184;48.774;8.918;2023-05-10T04:12:58;12.02;91.13
47434;SHT31;33184;48.774;8.918;2023-05-10T04:18:18;12.06;91.31
47434;SHT31;33184;48.774;8.918;2023-05-10T04:23:39;12.12;91.32
47434;SHT31;33184;48.774;8.918;2023-05-10T04:29:00;12.12;91.28
47434;SHT31;33184;48.774;8.918;2023-05-10T04:34:21;12.08;91.13
47434;SHT31;33184;48.774;8.918;2023-05-10T04:39:41;12.06;91.22
47434;SHT31;33184;48.774;8.918;2023-05-10T04:45:03;12.09;91.53
47434;SHT31;33184;48.774;8.918;2023-05-10T04:50:24;12.09;91.51
47434;SHT31;33184;48.774;8.918;2023-05-10T04:55:44;12.05;91.61
47434;SHT31;33184;48.774;8.918;2023-05-10T05:01:06;12.09;91.80
47434;SHT31;33184;48.774;8.918;2023-05-10T05:06:27;12.10;91.85
47434;SHT31;33184;48.774;8.918;2023-05-10T05:11:48;12.19;91.90
47434;SHT31;33184;48.774;8.918;2023-05-10T05:17:09;12.22;91.96
47434;SHT31;33184;48.774;8.918;2023-05-10T05:22:29;12.23;92.04
47434;SHT31;33184;48.774;8.918;2023-05-10T05:27:50;12.26;91.93
47434;SHT31;33184;48.774;8.918;2023-05-10T05:33:10;12.33;91.81
47434;SHT31;33184;48.774;8.918;2023-05-10T05:38:32;12.39;91.68
47434;SHT31;33184;48.774;8.918;2023-05-10T05:43:52;12.51;91.65
47434;SHT31;33184;48.774;8.918;2023-05-10T05:49:13;12.46;91.24
47434;SHT31;33184;48.774;8.918;2023-05-10T05:54:33;12.46;91.10
47434;SHT31;33184;48.774;8.918;2023-05-10T05:59:54;12.42;91.17
47434;SHT31;33184;48.774;8.918;2023-05-10T06:05:14;12.32;91.52
47434;SHT31;33184;48.774;8.918;2023-05-10T06:10:36;12.25;91.63
47434;SHT31;33184;48.774;8.918;2023-05-10T06:15:56;12.16;90.45
47434;SHT31;33184;48.774;8.918;2023-05-10T06:21:17;12.22;91.02
47434;SHT31;33184;48.774;8.918;2023-05-10T06:26:37;12.25;91.22
47434;SHT31;33184;48.774;8.918;2023-05-10T06:31:58;12.37;91.13
47434;SHT31;33184;48.774;8.918;2023-05-10T06:37:19;12.51;90.89
47434;SHT31;33184;48.774;8.918;2023-05-10T06:42:39;12.67;90.85
47434;SHT31;33184;48.774;8.918;2023-05-10T06:48:00;12.71;89.64
47434;SHT31;33184;48.774;8.918;2023-05-10T06:53:21;12.87;90.19
47434;SHT31;33184;48.774;8.918;2023-05-10T06:58:41;13.04;89.89
47434;SHT31;33184;48.774;8.918;2023-05-10T07:04:02;13.07;90.16
47434;SHT31;33184;48.774;8.918;2023-05-10T07:09:22;13.28;90.30
47434;SHT31;33184;48.774;8.918;2023-05-10T07:14:44;13.24;89.12
47434;SHT31;33184;48.774;8.918;2023-05-10T07:20:06;13.29;89.18
47434;SHT31;33184;48.774;8.918;2023-05-10T07:25:26;13.32;88.26
47434;SHT31;33184;48.774;8.918;2023-05-10T07:30:47;13.50;87.92
47434;SHT31;33184;48.774;8.918;2023-05-10T07:36:08;13.52;86.06
47434;SHT31;33184;48.774;8.918;2023-05-10T07:41:28;13.55;83.59
47434;SHT31;33184;48.774;8.918;2023-05-10T07:46:49;13.55;83.10
47434;SHT31;33184;48.774;8.918;2023-05-10T07:52:09;13.58;82.32
47434;SHT31;33184;48.774;8.918;2023-05-10T07:57:30;13.66;81.18
47434;SHT31;33184;48.774;8.918;2023-05-10T08:02:51;13.86;82.42
47434;SHT31;33184;48.774;8.918;2023-05-10T08:08:11;13.91;81.46
47434;SHT31;33184;48.774;8.918;2023-05-10T08:13:32;13.96;80.61
47434;SHT31;33184;48.774;8.918;2023-05-10T08:18:52;14.00;81.70
47434;SHT31;33184;48.774;8.918;2023-05-10T08:24:15;14.04;80.00
47434;SHT31;33184;48.774;8.918;2023-05-10T08:29:37;14.06;79.69
47434;SHT31;33184;48.774;8.918;2023-05-10T08:34:58;14.07;79.50
47434;SHT31;33184;48.774;8.918;2023-05-10T08:40:19;14.04;77.41
47434;SHT31;33184;48.774;8.918;2023-05-10T08:45:43;14.16;78.46
47434;SHT31;33184;48.774;8.918;2023-05-10T08:51:06;14.22;79.20
47434;SHT31;33184;48.774;8.918;2023-05-10T08:56:28;14.27;78.19
47434;SHT31;33184;48.774;8.918;2023-05-10T09:01:49;14.30;76.62
47434;SHT31;33184;48.774;8.918;2023-05-10T09:07:11;14.61;74.66
47434;SHT31;33184;48.774;8.918;2023-05-10T09:12:31;14.65;75.69
47434;SHT31;33184;48.774;8.918;2023-05-10T09:17:52;14.74;74.07
47434;SHT31;33184;48.774;8.918;2023-05-10T09:23:12;15.03;73.19
47434;SHT31;33184;48.774;8.918;2023-05-10T09:28:55;15.09;71.29
47434;SHT31;33184;48.774;8.918;2023-05-10T09:34:28;15.12;69.11
47434;SHT31;33184;48.774;8.918;2023-05-10T09:39:54;15.37;68.32
47434;SHT31;33184;48.774;8.918;2023-05-10T09:45:14;15.22;68.31
47434;SHT31;33184;48.774;8.918;2023-05-10T09:50:35;15.35;71.48
47434;SHT31;33184;48.774;8.918;2023-05-10T09:55:55;15.36;68.94
47434;SHT31;33184;48.774;8.918;2023-05-10T10:01:16;15.81;69.30
47434;SHT31;33184;48.774;8.918;2023-05-10T10:06:40;15.90;67.40
47434;SHT31;33184;48.774;8.918;2023-05-10T10:12:02;15.94;67.59
47434;SHT31;33184;48.774;8.918;2023-05-10T10:17:24;16.08;66.81
47434;SHT31;33184;48.774;8.918;2023-05-10T10:22:48;15.64;70.18
47434;SHT31;33184;48.774;8.918;2023-05-10T10:28:17;14.44;67.42
47434;SHT31;33184;48.774;8.918;2023-05-10T10:33:55;14.34;68.91
47434;SHT31;33184;48.774;8.918;2023-05-10T10:39:17;14.22;68.35
47434;SHT31;33184;48.774;8.918;2023-05-10T10:44:40;14.24;69.30
47434;SHT31;33184;48.774;8.918;2023-05-10T10:50:06;13.94;71.17
47434;SHT31;33184;48.774;8.918;2023-05-10T10:55:28;13.45;74.71
47434;SHT31;33184;48.774;8.918;2023-05-10T11:00:50;13.42;77.35
47434;SHT31;33184;48.774;8.918;2023-05-10T11:06:10;13.53;76.98
47434;SHT31;33184;48.774;8.918;2023-05-10T11:11:31;13.52;76.45
47434;SHT31;33184;48.774;8.918;2023-05-10T11:16:52;13.63;76.36
47434;SHT31;33184;48.774;8.918;2023-05-10T11:22:13;13.91;73.94
47434;SHT31;33184;48.774;8.918;2023-05-10T11:27:37;14.11;72.98
47434;SHT31;33184;48.774;8.918;2023-05-10T11:32:57;14.10;71.88
47434;SHT31;33184;48.774;8.918;2023-05-10T11:38:18;14.37;71.97
47434;SHT31;33184;48.774;8.918;2023-05-10T11:43:39;14.60;71.22
47434;SHT31;33184;48.774;8.918;2023-05-10T11:49:01;14.60;70.18
47434;SHT31;33184;48.774;8.918;2023-05-10T11:54:24;14.52;70.55
47434;SHT31;33184;48.774;8.918;2023-05-10T11:59:44;14.76;70.55
47434;SHT31;33184;48.774;8.918;2023-05-10T12:05:06;14.45;73.01
47434;SHT31;33184;48.774;8.918;2023-05-10T12:10:27;14.79;70.14
47434;SHT31;33184;48.774;8.918;2023-05-10T12:15:48;15.17;68.80
47434;SHT31;33184;48.774;8.918;2023-05-10T12:21:12;15.00;65.25
47434;SHT31;33184;48.774;8.918;2023-05-10T12:26:32;14.67;66.28
47434;SHT31;33184;48.774;8.918;2023-05-10T12:31:55;14.69;64.62
47434;SHT31;33184;48.774;8.918;2023-05-10T12:37:16;14.86;66.02
47434;SHT31;33184;48.774;8.918;2023-05-10T12:42:37;15.24;64.03
47434;SHT31;33184;48.774;8.918;2023-05-10T12:47:58;15.37;63.81
47434;SHT31;33184;48.774;8.918;2023-05-10T12:53:19;15.58;62.00
47434;SHT31;33184;48.774;8.918;2023-05-10T12:58:40;15.63;61.60
47434;SHT31;33184;48.774;8.918;2023-05-10T13:04:00;15.36;62.62
47434;SHT31;33184;48.774;8.918;2023-05-10T13:09:21;15.58;59.93
47434;SHT31;33184;48.774;8.918;2023-05-10T13:14:41;15.70;60.00
47434;SHT31;33184;48.774;8.918;2023-05-10T13:20:02;15.50;60.90
47434;SHT31;33184;48.774;8.918;2023-05-10T13:25:23;15.57;60.19
47434;SHT31;33184;48.774;8.918;2023-05-10T13:30:44;15.58;58.90
47434;SHT31;33184;48.774;8.918;2023-05-10T13:36:05;15.74;59.67
47434;SHT31;33184;48.774;8.918;2023-05-10T13:41:26;15.60;58.06
47434;SHT31;33184;48.774;8.918;2023-05-10T13:46:47;15.56;59.37
47434;SHT31;33184;48.774;8.918;2023-05-10T13:52:07;15.40;59.46
47434;SHT31;33184;48.774;8.918;2023-05-10T13:57:28;15.32;59.32
47434;SHT31;33184;48.774;8.918;2023-05-10T14:02:50;15.66;59.19
47434;SHT31;33184;48.774;8.918;2023-05-10T14:08:11;15.71;58.02
47434;SHT31;33184;48.774;8.918;2023-05-10T14:13:33;15.74;58.91
47434;SHT31;33184;48.774;8.918;2023-05-10T14:18:53;15.98;59.76
47434;SHT31;33184;48.774;8.918;2023-05-10T14:24:14;15.84;58.95
47434;SHT31;33184;48.774;8.918;2023-05-10T14:29:35;15.51;59.67
47434;SHT31;33184;48.774;8.918;2023-05-10T14:34:55;15.54;60.65
47434;SHT31;33184;48.774;8.918;2023-05-10T14:40:16;15.49;58.53
47434;SHT31;33184;48.774;8.918;2023-05-10T14:45:37;15.74;58.58
47434;SHT31;33184;48.774;8.918;2023-05-10T14:50:57;15.88;58.92
47434;SHT31;33184;48.774;8.918;2023-05-10T14:56:18;16.14;56.87
47434;SHT31;33184;48.774;8.918;2023-05-10T15:01:38;16.12;56.52
47434;SHT31;33184;48.774;8.918;2023-05-10T15:07:01;16.11;56.65
47434;SHT31;33184;48.774;8.918;2023-05-10T15:12:22;16.22;56.22
47434;SHT31;33184;48.774;8.918;2023-05-10T15:17:42;16.10;55.72
47434;SHT31;33184;48.774;8.918;2023-05-10T15:23:03;16.02;55.42
47434;SHT31;33184;48.774;8.918;2023-05-10T15:28:24;15.97;56.30
47434;SHT31;33184;48.774;8.918;2023-05-10T15:33:44;15.87;56.18
47434;SHT31;33184;48.774;8.918;2023-05-10T15:39:05;15.98;57.37
47434;SHT31;33184;48.774;8.918;2023-05-10T15:44:29;16.25;56.56
47434;SHT31;33184;48.774;8.918;2023-05-10T15:49:49;16.07;55.94
47434;SHT31;33184;48.774;8.918;2023-05-10T15:55:10;16.08;56.18
47434;SHT31;33184;48.774;8.918;2023-05-10T16:00:33;16.00;56.62
47434;SHT31;33184;48.774;8.918;2023-05-10T16:05:54;15.84;57.11
47434;SHT31;33184;48.774;8.918;2023-05-10T16:11:14;15.81;58.22
47434;SHT31;33184;48.774;8.918;2023-05-10T16:16:35;15.66;58.32
47434;SHT31;33184;48.774;8.918;2023-05-10T16:21:55;15.46;58.65
47434;SHT31;33184;48.774;8.918;2023-05-10T16:27:16;15.37;59.19
47434;SHT31;33184;48.774;8.918;2023-05-10T16:32:37;15.32;59.81
47434;SHT31;33184;48.774;8.918;2023-05-10T16:37:58;15.43;60.93
47434;SHT31;33184;48.774;8.918;2023-05-10T16:43:19;15.39;61.21
47434;SHT31;33184;48.774;8.918;2023-05-10T16:48:39;15.22;58.90
47434;SHT31;33184;48.774;8.918;2023-05-10T16:54:00;15.22;59.06
47434;SHT31;33184;48.774;8.918;2023-05-10T16:59:20;15.19;59.14
47434;SHT31;33184;48.774;8.918;2023-05-10T17:04:41;15.22;58.38
47434;SHT31;33184;48.774;8.918;2023-05-10T17:10:02;15.06;59.53
47434;SHT31;33184;48.774;8.918;2023-05-10T17:15:22;14.86;59.86
47434;SHT31;33184;48.774;8.918;2023-05-10T17:20:43;14.72;60.91
47434;SHT31;33184;48.774;8.918;2023-05-10T17:26:05;14.57;61.64
47434;SHT31;33184;48.774;8.918;2023-05-10T17:31:26;14.52;62.41
47434;SHT31;33184;48.774;8.918;2023-05-10T17:36:46;14.48;63.21
47434;SHT31;33184;48.774;8.918;2023-05-10T17:42:07;14.48;63.86
47434;SHT31;33184;48.774;8.918;2023-05-10T17:47:28;14.41;63.86
47434;SHT31;33184;48.774;8.918;2023-05-10T17:52:48;14.32;64.40
47434;SHT31;33184;48.774;8.918;2023-05-10T17:58:10;14.27;64.87
47434;SHT31;33184;48.774;8.918;2023-05-10T18:03:31;14.16;65.45
47434;SHT31;33184;48.774;8.918;2023-05-10T18:08:52;14.14;67.03
47434;SHT31;33184;48.774;8.918;2023-05-10T18:14:12;14.01;66.69
47434;SHT31;33184;48.774;8.918;2023-05-10T18:19:33;13.90;66.31
47434;SHT31;33184;48.774;8.918;2023-05-10T18:24:53;13.79;66.75
47434;SHT31;33184;48.774;8.918;2023-05-10T18:30:14;13.86;66.57
47434;SHT31;33184;48.774;8.918;2023-05-10T18:35:35;13.77;66.34
47434;SHT31;33184;48.774;8.918;2023-05-10T18:40:55;13.86;66.50
47434;SHT31;33184;48.774;8.918;2023-05-10T18:46:17;13.76;67.81
47434;SHT31;33184;48.774;8.918;2023-05-10T18:51:37;13.67;68.43
47434;SHT31;33184;48.774;8.918;2023-05-10T18:56:58;13.72;67.54
47434;SHT31;33184;48.774;8.918;2023-05-10T19:02:18;13.73;67.83
47434;SHT31;33184;48.774;8.918;2023-05-10T19:07:39;13.77;69.75
47434;SHT31;33184;48.774;8.918;2023-05-10T19:13:02;13.72;69.93
47434;SHT31;33184;48.774;8.918;2023-05-10T19:18:23;13.62;70.95
47434;SHT31;33184;48.774;8.918;2023-05-10T19:23:43;13.49;72.55
47434;SHT31;33184;48.774;8.918;2023-05-10T19:29:04;13.46;73.28
47434;SHT31;33184;48.774;8.918;2023-05-10T19:34:24;13.34;73.49
47434;SHT31;33184;48.774;8.918;2023-05-10T19:39:45;13.25;73.83
47434;SHT31;33184;48.774;8.918;2023-05-10T19:45:06;13.29;73.58
47434;SHT31;33184;48.774;8.918;2023-05-10T19:50:27;13.14;73.93
47434;SHT31;33184;48.774;8.918;2023-05-10T19:55:48;13.10;73.72
47434;SHT31;33184;48.774;8.918;2023-05-10T20:01:08;13.07;73.73
47434;SHT31;33184;48.774;8.918;2023-05-10T20:06:29;12.85;74.07
47434;SHT31;33184;48.774;8.918;2023-05-10T20:11:49;12.73;74.04
47434;SHT31;33184;48.774;8.918;2023-05-10T20:17:10;12.59;74.24
47434;SHT31;33184;48.774;8.918;2023-05-10T20:22:30;12.47;74.91
47434;SHT31;33184;48.774;8.918;2023-05-10T20:27:51;12.39;75.41
47434;SHT31;33184;48.774;8.918;2023-05-10T20:33:11;12.26;75.97
47434;SHT31;33184;48.774;8.918;2023-05-10T20:38:35;12.23;76.34
47434;SHT31;33184;48.774;8.918;2023-05-10T20:43:56;12.25;76.52
47434;SHT31;33184;48.774;8.918;2023-05-10T20:49:16;12.34;76.44
47434;SHT31;33184;48.774;8.918;2023-05-10T20:54:37;12.34;76.05
47434;SHT31;33184;48.774;8.918;2023-05-10T20:59:57;12.28;76.26
47434;SHT31;33184;48.774;8.918;2023-05-10T21:05:18;12.39;75.89
47434;SHT31;33184;48.774;8.918;2023-05-10T21:10:38;12.34;75.96
47434;SHT31;33184;48.774;8.918;2023-05-10T21:15:59;12.25;76.06
47434;SHT31;33184;48.774;8.918;2023-05-10T21:21:19;12.08;76.34
47434;SHT31;33184;48.774;8.918;2023-05-10T21:26:40;12.03;76.49
47434;SHT31;33184;48.774;8.918;2023-05-10T21:32:01;11.90;77.32
47434;SHT31;33184;48.774;8.918;2023-05-10T21:37:21;11.72;77.79
47434;SHT31;33184;48.774;8.918;2023-05-10T21:42:42;11.61;78.86
47434;SHT31;33184;48.774;8.918;2023-05-10T21:48:03;11.54;79.27
47434;SHT31;33184;48.774;8.918;2023-05-10T21:53:24;11.44;79.58
47434;SHT31;33184;48.774;8.918;2023-05-10T21:58:44;11.61;79.41
47434;SHT31;33184;48.774;8.918;2023-05-10T22:04:05;11.50;79.55
47434;SHT31;33184;48.774;8.918;2023-05-10T22:09:25;11.45;79.60
47434;SHT31;33184;48.774;8.918;2023-05-10T22:14:46;11.48;79.51
47434;SHT31;33184;48.774;8.918;2023-05-10T22:20:07;11.41;79.77
47434;SHT31;33184;48.774;8.918;2023-05-10T22:25:27;11.30;79.93
47434;SHT31;33184;48.774;8.918;2023-05-10T22:30:48;11.27;79.99
47434;SHT31;33184;48.774;8.918;2023-05-10T22:36:08;11.34;79.47
47434;SHT31;33184;48.774;8.918;2023-05-10T22:41:29;11.41;79.41
47434;SHT31;33184;48.774;8.918;2023-05-10T22:46:49;11.43;79.36
47434;SHT31;33184;48.774;8.918;2023-05-10T22:52:10;11.47;80.13
47434;SHT31;33184;48.774;8.918;2023-05-10T22:57:31;11.52;79.91
47434;SHT31;33184;48.774;8.918;2023-05-10T23:02:53;11.58;79.81
47434;SHT31;33184;48.774;8.918;2023-05-10T23:08:13;11.57;79.49
47434;SHT31;33184;48.774;8.918;2023-05-10T23:13:34;11.57;79.49
47434;SHT31;33184;48.774;8.918;2023-05-10T23:18:55;11.51;79.31
47434;SHT31;33184;48.774;8.918;2023-05-10T23:24:15;11.37;79.79
47434;SHT31;33184;48.774;8.918;2023-05-10T23:29:36;11.34;80.31
47434;SHT31;33184;48.774;8.918;2023-05-10T23:34:57;11.34;80.04
47434;SHT31;33184;48.774;8.918;2023-05-10T23:40:17;11.30;80.17
47434;SHT31;33184;48.774;8.918;2023-05-10T23:45:38;11.25;80.74
47434;SHT31;33184;48.774;8.918;2023-05-10T23:50:58;11.25;81.43
47434;SHT31;33184;48.774;8.918;2023-05-10T23:56:19;11.34;81.47
